sensor_id;sensor_type;location;lat;lon;timestamp;P1;durP1;ratioP1;P2;durP2;ratioP2
60704;SDS011;46545;38.014;-7.874;2022-12-18T00:01:46;8.75;;;3.33;;
60704;SDS011;46545;38.014;-7.874;2022-12-18T00:03:46;9.02;;;4.60;;
60704;SDS011;46545;38.014;-7.874;2022-12-18T00:05:48;8.05;;;2.85;;
60704;SDS011;46545;38.014;-7.874;2022-12-18T00:07:49;4.75;;;2.30;;
60704;SDS011;46545;38.014;-7.874;2022-12-18T00:09:49;10.68;;;2.60;;
60704;SDS011;46545;38.014;-7.874;2022-12-18T00:11:50;10.93;;;2.53;;
60704;SDS011;46545;38.014;-7.874;2022-12-18T00:13:50;8.45;;;2.05;;
60704;SDS011;46545;38.014;-7.874;2022-12-18T00:15:51;8.25;;;2.17;;
60704;SDS011;46545;38.014;-7.874;2022-12-18T00:17:52;11.77;;;2.78;;
60704;SDS011;46545;38.014;-7.874;2022-12-18T00:19:52;9.43;;;2.45;;
60704;SDS011;46545;38.014;-7.874;2022-12-18T00:21:53;13.40;;;2.72;;
60704;SDS011;46545;38.014;-7.874;2022-12-18T00:23:53;6.30;;;2.65;;
60704;SDS011;46545;38.014;-7.874;2022-12-18T00:25:54;7.95;;;2.08;;
60704;SDS011;46545;38.014;-7.874;2022-12-18T00:27:54;8.63;;;2.08;;
60704;SDS011;46545;38.014;-7.874;2022-12-18T00:29:55;7.55;;;2.22;;
60704;SDS011;46545;38.014;-7.874;2022-12-18T00:31:55;6.68;;;2.00;;
60704;SDS011;46545;38.014;-7.874;2022-12-18T00:33:56;8.82;;;2.88;;
60704;SDS011;46545;38.014;-7.874;2022-12-18T00:36:07;6.55;;;2.03;;
60704;SDS011;46545;38.014;-7.874;2022-12-18T00:38:08;10.85;;;2.55;;
60704;SDS011;46545;38.014;-7.874;2022-12-18T00:40:08;8.40;;;2.38;;
60704;SDS011;46545;38.014;-7.874;2022-12-18T00:42:10;3.58;;;1.73;;
60704;SDS011;46545;38.014;-7.874;2022-12-18T00:44:37;6.03;;;2.22;;
60704;SDS011;46545;38.014;-7.874;2022-12-18T00:46:37;3.25;;;2.00;;
60704;SDS011;46545;38.014;-7.874;2022-12-18T00:48:38;7.55;;;2.08;;
60704;SDS011;46545;38.014;-7.874;2022-12-18T00:50:38;2.90;;;1.90;;
60704;SDS011;46545;38.014;-7.874;2022-12-18T00:52:39;6.18;;;2.65;;
60704;SDS011;46545;38.014;-7.874;2022-12-18T00:54:39;5.82;;;2.50;;
60704;SDS011;46545;38.014;-7.874;2022-12-18T00:56:40;6.78;;;2.58;;
60704;SDS011;46545;38.014;-7.874;2022-12-18T00:58:41;11.25;;;3.05;;
60704;SDS011;46545;38.014;-7.874;2022-12-18T01:00:41;10.55;;;3.38;;
60704;SDS011;46545;38.014;-7.874;2022-12-18T01:02:44;13.35;;;2.92;;
60704;SDS011;46545;38.014;-7.874;2022-12-18T01:04:45;6.65;;;2.72;;
60704;SDS011;46545;38.014;-7.874;2022-12-18T01:06:46;4.22;;;2.22;;
60704;SDS011;46545;38.014;-7.874;2022-12-18T01:08:46;5.18;;;2.40;;
60704;SDS011;46545;38.014;-7.874;2022-12-18T01:10:47;8.52;;;2.50;;
60704;SDS011;46545;38.014;-7.874;2022-12-18T01:12:47;8.70;;;2.75;;
60704;SDS011;46545;38.014;-7.874;2022-12-18T01:14:48;9.38;;;2.92;;
60704;SDS011;46545;38.014;-7.874;2022-12-18T01:16:48;5.13;;;2.42;;
60704;SDS011;46545;38.014;-7.874;2022-12-18T01:18:52;5.00;;;2.83;;
60704;SDS011;46545;38.014;-7.874;2022-12-18T01:20:53;5.97;;;2.10;;
60704;SDS011;46545;38.014;-7.874;2022-12-18T01:22:54;7.72;;;2.33;;
60704;SDS011;46545;38.014;-7.874;2022-12-18T01:24:54;5.80;;;2.63;;
60704;SDS011;46545;38.014;-7.874;2022-12-18T01:26:56;4.78;;;1.60;;
60704;SDS011;46545;38.014;-7.874;2022-12-18T01:28:57;7.30;;;2.92;;
60704;SDS011;46545;38.014;-7.874;2022-12-18T01:31:08;12.52;;;1.73;;
60704;SDS011;46545;38.014;-7.874;2022-12-18T01:33:08;5.68;;;1.90;;
60704;SDS011;46545;38.014;-7.874;2022-12-18T01:35:09;5.20;;;1.98;;
60704;SDS011;46545;38.014;-7.874;2022-12-18T01:37:09;11.02;;;2.47;;
60704;SDS011;46545;38.014;-7.874;2022-12-18T01:39:11;9.95;;;1.52;;
60704;SDS011;46545;38.014;-7.874;2022-12-18T01:41:16;9.00;;;2.00;;
60704;SDS011;46545;38.014;-7.874;2022-12-18T01:43:17;10.95;;;2.13;;
60704;SDS011;46545;38.014;-7.874;2022-12-18T01:49:38;5.20;;;1.90;;
60704;SDS011;46545;38.014;-7.874;2022-12-18T01:51:38;5.35;;;2.00;;
60704;SDS011;46545;38.014;-7.874;2022-12-18T01:53:39;5.18;;;1.65;;
60704;SDS011;46545;38.014;-7.874;2022-12-18T01:55:51;5.65;;;1.80;;
60704;SDS011;46545;38.014;-7.874;2022-12-18T01:57:52;8.65;;;2.10;;
60704;SDS011;46545;38.014;-7.874;2022-12-18T01:59:54;9.25;;;2.67;;
60704;SDS011;46545;38.014;-7.874;2022-12-18T02:01:56;10.90;;;2.28;;
60704;SDS011;46545;38.014;-7.874;2022-12-18T02:04:14;8.45;;;3.00;;
60704;SDS011;46545;38.014;-7.874;2022-12-18T02:06:27;8.15;;;2.13;;
60704;SDS011;46545;38.014;-7.874;2022-12-18T02:19:27;7.55;;;2.30;;
60704;SDS011;46545;38.014;-7.874;2022-12-18T02:21:40;10.50;;;2.15;;
60704;SDS011;46545;38.014;-7.874;2022-12-18T02:23:51;6.57;;;2.05;;
60704;SDS011;46545;38.014;-7.874;2022-12-18T02:26:00;6.28;;;2.58;;
60704;SDS011;46545;38.014;-7.874;2022-12-18T02:28:03;6.97;;;1.60;;
60704;SDS011;46545;38.014;-7.874;2022-12-18T02:30:06;3.72;;;1.70;;
60704;SDS011;46545;38.014;-7.874;2022-12-18T02:32:09;8.18;;;2.00;;
60704;SDS011;46545;38.014;-7.874;2022-12-18T02:34:11;5.32;;;2.55;;
60704;SDS011;46545;38.014;-7.874;2022-12-18T02:36:12;7.28;;;2.13;;
60704;SDS011;46545;38.014;-7.874;2022-12-18T02:38:16;11.57;;;2.08;;
60704;SDS011;46545;38.014;-7.874;2022-12-18T02:40:19;3.60;;;1.58;;
60704;SDS011;46545;38.014;-7.874;2022-12-18T02:42:21;4.32;;;1.83;;
60704;SDS011;46545;38.014;-7.874;2022-12-18T02:44:22;3.28;;;1.95;;
60704;SDS011;46545;38.014;-7.874;2022-12-18T02:46:33;6.93;;;1.35;;
60704;SDS011;46545;38.014;-7.874;2022-12-18T02:48:39;7.47;;;2.05;;
60704;SDS011;46545;38.014;-7.874;2022-12-18T02:50:52;3.92;;;1.45;;
60704;SDS011;46545;38.014;-7.874;2022-12-18T02:57:46;8.63;;;2.03;;
60704;SDS011;46545;38.014;-7.874;2022-12-18T02:59:46;7.25;;;2.22;;
60704;SDS011;46545;38.014;-7.874;2022-12-18T03:04:24;10.95;;;1.83;;
60704;SDS011;46545;38.014;-7.874;2022-12-18T03:06:28;6.50;;;1.73;;
60704;SDS011;46545;38.014;-7.874;2022-12-18T03:08:30;6.90;;;2.08;;
60704;SDS011;46545;38.014;-7.874;2022-12-18T03:10:34;14.20;;;2.45;;
60704;SDS011;46545;38.014;-7.874;2022-12-18T03:12:38;24.13;;;3.13;;
60704;SDS011;46545;38.014;-7.874;2022-12-18T03:14:42;7.10;;;2.38;;
60704;SDS011;46545;38.014;-7.874;2022-12-18T03:16:44;10.43;;;3.00;;
60704;SDS011;46545;38.014;-7.874;2022-12-18T03:18:46;7.25;;;2.33;;
60704;SDS011;46545;38.014;-7.874;2022-12-18T03:20:48;5.10;;;2.63;;
60704;SDS011;46545;38.014;-7.874;2022-12-18T03:22:54;11.13;;;2.25;;
60704;SDS011;46545;38.014;-7.874;2022-12-18T03:24:58;16.25;;;2.53;;
60704;SDS011;46545;38.014;-7.874;2022-12-18T03:27:01;19.60;;;2.33;;
60704;SDS011;46545;38.014;-7.874;2022-12-18T03:29:04;20.75;;;2.38;;
60704;SDS011;46545;38.014;-7.874;2022-12-18T03:31:08;29.10;;;3.55;;
60704;SDS011;46545;38.014;-7.874;2022-12-18T03:35:13;52.90;;;5.68;;
60704;SDS011;46545;38.014;-7.874;2022-12-18T03:37:14;65.97;;;5.28;;
60704;SDS011;46545;38.014;-7.874;2022-12-18T03:39:15;78.28;;;6.45;;
60704;SDS011;46545;38.014;-7.874;2022-12-18T03:41:32;68.15;;;3.60;;
60704;SDS011;46545;38.014;-7.874;2022-12-18T03:44:10;104.38;;;7.20;;
60704;SDS011;46545;38.014;-7.874;2022-12-18T03:46:40;29.23;;;2.85;;
60704;SDS011;46545;38.014;-7.874;2022-12-18T03:48:38;37.00;;;2.90;;
60704;SDS011;46545;38.014;-7.874;2022-12-18T03:50:49;41.10;;;3.88;;
60704;SDS011;46545;38.014;-7.874;2022-12-18T03:52:58;10.52;;;1.67;;
60704;SDS011;46545;38.014;-7.874;2022-12-18T03:55:01;4.13;;;1.63;;
60704;SDS011;46545;38.014;-7.874;2022-12-18T03:57:06;6.63;;;1.40;;
60704;SDS011;46545;38.014;-7.874;2022-12-18T03:59:10;1.70;;;0.80;;
60704;SDS011;46545;38.014;-7.874;2022-12-18T04:01:12;10.30;;;1.42;;
60704;SDS011;46545;38.014;-7.874;2022-12-18T04:03:14;4.38;;;1.05;;
60704;SDS011;46545;38.014;-7.874;2022-12-18T04:05:20;4.57;;;1.08;;
60704;SDS011;46545;38.014;-7.874;2022-12-18T04:07:22;3.35;;;1.15;;
60704;SDS011;46545;38.014;-7.874;2022-12-18T04:09:23;22.10;;;1.95;;
60704;SDS011;46545;38.014;-7.874;2022-12-18T04:11:25;21.45;;;1.67;;
60704;SDS011;46545;38.014;-7.874;2022-12-18T04:13:28;35.33;;;4.40;;
60704;SDS011;46545;38.014;-7.874;2022-12-18T04:15:32;12.55;;;1.35;;
60704;SDS011;46545;38.014;-7.874;2022-12-18T04:17:34;19.65;;;1.52;;
60704;SDS011;46545;38.014;-7.874;2022-12-18T04:19:35;13.75;;;1.63;;
60704;SDS011;46545;38.014;-7.874;2022-12-18T04:21:37;28.00;;;2.75;;
60704;SDS011;46545;38.014;-7.874;2022-12-18T04:23:37;3.47;;;1.17;;
60704;SDS011;46545;38.014;-7.874;2022-12-18T04:25:38;22.95;;;2.08;;
60704;SDS011;46545;38.014;-7.874;2022-12-18T04:27:42;9.75;;;1.20;;
60704;SDS011;46545;38.014;-7.874;2022-12-18T04:29:43;10.77;;;1.00;;
60704;SDS011;46545;38.014;-7.874;2022-12-18T04:31:44;13.18;;;1.45;;
60704;SDS011;46545;38.014;-7.874;2022-12-18T04:33:44;12.00;;;0.80;;
60704;SDS011;46545;38.014;-7.874;2022-12-18T04:35:45;14.43;;;1.35;;
60704;SDS011;46545;38.014;-7.874;2022-12-18T04:37:47;8.25;;;1.00;;
60704;SDS011;46545;38.014;-7.874;2022-12-18T04:39:47;24.42;;;1.85;;
60704;SDS011;46545;38.014;-7.874;2022-12-18T04:41:55;21.35;;;1.25;;
60704;SDS011;46545;38.014;-7.874;2022-12-18T04:43:56;55.22;;;3.17;;
60704;SDS011;46545;38.014;-7.874;2022-12-18T04:46:03;15.40;;;1.73;;
60704;SDS011;46545;38.014;-7.874;2022-12-18T04:48:04;10.88;;;0.90;;
60704;SDS011;46545;38.014;-7.874;2022-12-18T04:50:04;30.48;;;2.22;;
60704;SDS011;46545;38.014;-7.874;2022-12-18T04:52:06;16.35;;;1.38;;
60704;SDS011;46545;38.014;-7.874;2022-12-18T04:54:06;14.40;;;2.53;;
60704;SDS011;46545;38.014;-7.874;2022-12-18T04:56:08;19.50;;;2.17;;
60704;SDS011;46545;38.014;-7.874;2022-12-18T04:58:09;9.95;;;1.58;;
60704;SDS011;46545;38.014;-7.874;2022-12-18T05:00:10;22.83;;;1.70;;
60704;SDS011;46545;38.014;-7.874;2022-12-18T05:02:11;50.75;;;4.32;;
60704;SDS011;46545;38.014;-7.874;2022-12-18T05:04:12;29.60;;;2.17;;
60704;SDS011;46545;38.014;-7.874;2022-12-18T05:06:12;38.15;;;2.65;;
60704;SDS011;46545;38.014;-7.874;2022-12-18T05:08:13;17.77;;;1.67;;
60704;SDS011;46545;38.014;-7.874;2022-12-18T05:10:13;29.67;;;2.50;;
60704;SDS011;46545;38.014;-7.874;2022-12-18T05:12:14;23.33;;;3.25;;
60704;SDS011;46545;38.014;-7.874;2022-12-18T05:14:14;35.88;;;3.25;;
60704;SDS011;46545;38.014;-7.874;2022-12-18T05:16:15;30.60;;;2.30;;
60704;SDS011;46545;38.014;-7.874;2022-12-18T05:18:16;71.68;;;3.70;;
60704;SDS011;46545;38.014;-7.874;2022-12-18T05:20:16;42.38;;;3.92;;
60704;SDS011;46545;38.014;-7.874;2022-12-18T05:22:18;62.17;;;3.63;;
60704;SDS011;46545;38.014;-7.874;2022-12-18T05:24:18;48.40;;;3.90;;
60704;SDS011;46545;38.014;-7.874;2022-12-18T05:26:19;59.33;;;4.57;;
60704;SDS011;46545;38.014;-7.874;2022-12-18T05:28:20;17.70;;;2.08;;
60704;SDS011;46545;38.014;-7.874;2022-12-18T05:30:20;70.20;;;4.63;;
60704;SDS011;46545;38.014;-7.874;2022-12-18T05:32:21;61.03;;;5.70;;
60704;SDS011;46545;38.014;-7.874;2022-12-18T05:34:21;27.02;;;2.13;;
60704;SDS011;46545;38.014;-7.874;2022-12-18T05:36:22;29.08;;;2.83;;
60704;SDS011;46545;38.014;-7.874;2022-12-18T05:38:23;16.67;;;1.88;;
60704;SDS011;46545;38.014;-7.874;2022-12-18T05:40:23;40.15;;;3.50;;
60704;SDS011;46545;38.014;-7.874;2022-12-18T05:42:24;32.10;;;3.95;;
60704;SDS011;46545;38.014;-7.874;2022-12-18T05:44:24;45.47;;;3.63;;
60704;SDS011;46545;38.014;-7.874;2022-12-18T05:46:25;14.98;;;2.22;;
60704;SDS011;46545;38.014;-7.874;2022-12-18T05:48:25;21.77;;;2.20;;
60704;SDS011;46545;38.014;-7.874;2022-12-18T05:50:26;20.65;;;2.13;;
60704;SDS011;46545;38.014;-7.874;2022-12-18T05:52:26;46.20;;;3.22;;
60704;SDS011;46545;38.014;-7.874;2022-12-18T05:54:27;29.65;;;2.70;;
60704;SDS011;46545;38.014;-7.874;2022-12-18T05:56:28;30.20;;;3.83;;
60704;SDS011;46545;38.014;-7.874;2022-12-18T05:58:28;43.92;;;4.68;;
60704;SDS011;46545;38.014;-7.874;2022-12-18T06:00:29;21.23;;;2.40;;
60704;SDS011;46545;38.014;-7.874;2022-12-18T06:02:30;31.10;;;4.50;;
60704;SDS011;46545;38.014;-7.874;2022-12-18T06:04:30;62.90;;;5.43;;
60704;SDS011;46545;38.014;-7.874;2022-12-18T06:06:31;55.67;;;4.60;;
60704;SDS011;46545;38.014;-7.874;2022-12-18T06:08:32;43.50;;;4.75;;
60704;SDS011;46545;38.014;-7.874;2022-12-18T06:10:32;34.70;;;2.75;;
60704;SDS011;46545;38.014;-7.874;2022-12-18T06:12:32;30.98;;;3.05;;
60704;SDS011;46545;38.014;-7.874;2022-12-18T06:14:36;68.13;;;4.57;;
60704;SDS011;46545;38.014;-7.874;2022-12-18T06:16:36;39.70;;;3.92;;
60704;SDS011;46545;38.014;-7.874;2022-12-18T06:18:37;25.90;;;2.97;;
60704;SDS011;46545;38.014;-7.874;2022-12-18T06:20:37;50.30;;;4.10;;
60704;SDS011;46545;38.014;-7.874;2022-12-18T06:22:39;73.38;;;6.82;;
60704;SDS011;46545;38.014;-7.874;2022-12-18T06:24:40;57.30;;;7.70;;
60704;SDS011;46545;38.014;-7.874;2022-12-18T06:26:40;74.40;;;8.23;;
60704;SDS011;46545;38.014;-7.874;2022-12-18T06:28:41;40.10;;;4.43;;
60704;SDS011;46545;38.014;-7.874;2022-12-18T06:30:48;55.47;;;3.95;;
60704;SDS011;46545;38.014;-7.874;2022-12-18T06:32:49;46.45;;;4.22;;
60704;SDS011;46545;38.014;-7.874;2022-12-18T06:34:50;72.97;;;5.50;;
60704;SDS011;46545;38.014;-7.874;2022-12-18T06:36:50;60.13;;;5.05;;
60704;SDS011;46545;38.014;-7.874;2022-12-18T06:38:51;81.15;;;4.63;;
60704;SDS011;46545;38.014;-7.874;2022-12-18T06:40:51;36.65;;;4.20;;
60704;SDS011;46545;38.014;-7.874;2022-12-18T06:42:51;48.75;;;4.28;;
60704;SDS011;46545;38.014;-7.874;2022-12-18T06:44:52;34.00;;;3.50;;
60704;SDS011;46545;38.014;-7.874;2022-12-18T06:46:52;33.92;;;2.92;;
60704;SDS011;46545;38.014;-7.874;2022-12-18T06:48:53;35.00;;;3.05;;
60704;SDS011;46545;38.014;-7.874;2022-12-18T06:50:53;26.40;;;2.90;;
60704;SDS011;46545;38.014;-7.874;2022-12-18T06:52:54;51.13;;;3.17;;
60704;SDS011;46545;38.014;-7.874;2022-12-18T06:54:54;27.30;;;3.22;;
60704;SDS011;46545;38.014;-7.874;2022-12-18T06:56:55;43.47;;;3.75;;
60704;SDS011;46545;38.014;-7.874;2022-12-18T06:58:55;91.93;;;7.40;;
60704;SDS011;46545;38.014;-7.874;2022-12-18T07:00:59;40.50;;;4.05;;
60704;SDS011;46545;38.014;-7.874;2022-12-18T07:03:00;21.05;;;2.80;;
60704;SDS011;46545;38.014;-7.874;2022-12-18T07:05:01;36.67;;;3.60;;
60704;SDS011;46545;38.014;-7.874;2022-12-18T07:07:01;17.17;;;3.05;;
60704;SDS011;46545;38.014;-7.874;2022-12-18T07:09:02;15.93;;;2.72;;
60704;SDS011;46545;38.014;-7.874;2022-12-18T07:11:03;18.83;;;2.67;;
60704;SDS011;46545;38.014;-7.874;2022-12-18T07:13:03;26.17;;;3.70;;
60704;SDS011;46545;38.014;-7.874;2022-12-18T07:15:04;26.85;;;3.72;;
60704;SDS011;46545;38.014;-7.874;2022-12-18T07:17:05;23.65;;;3.70;;
60704;SDS011;46545;38.014;-7.874;2022-12-18T07:19:05;30.50;;;3.83;;
60704;SDS011;46545;38.014;-7.874;2022-12-18T07:21:06;26.73;;;3.75;;
60704;SDS011;46545;38.014;-7.874;2022-12-18T07:23:07;37.88;;;5.18;;
60704;SDS011;46545;38.014;-7.874;2022-12-18T07:25:07;9.05;;;2.25;;
60704;SDS011;46545;38.014;-7.874;2022-12-18T07:27:08;39.15;;;3.22;;
60704;SDS011;46545;38.014;-7.874;2022-12-18T07:29:09;31.92;;;3.20;;
60704;SDS011;46545;38.014;-7.874;2022-12-18T07:31:10;35.40;;;3.50;;
60704;SDS011;46545;38.014;-7.874;2022-12-18T07:33:11;21.77;;;4.60;;
60704;SDS011;46545;38.014;-7.874;2022-12-18T07:35:12;14.38;;;3.35;;
60704;SDS011;46545;38.014;-7.874;2022-12-18T07:37:12;25.92;;;3.42;;
60704;SDS011;46545;38.014;-7.874;2022-12-18T07:39:13;38.50;;;4.25;;
60704;SDS011;46545;38.014;-7.874;2022-12-18T07:41:13;30.27;;;3.45;;
60704;SDS011;46545;38.014;-7.874;2022-12-18T07:43:14;36.60;;;4.45;;
60704;SDS011;46545;38.014;-7.874;2022-12-18T07:45:14;22.42;;;3.47;;
60704;SDS011;46545;38.014;-7.874;2022-12-18T07:47:15;38.03;;;4.43;;
60704;SDS011;46545;38.014;-7.874;2022-12-18T07:49:15;12.52;;;2.97;;
60704;SDS011;46545;38.014;-7.874;2022-12-18T07:51:16;40.28;;;4.20;;
60704;SDS011;46545;38.014;-7.874;2022-12-18T07:53:16;16.10;;;3.65;;
60704;SDS011;46545;38.014;-7.874;2022-12-18T07:55:17;22.63;;;4.13;;
60704;SDS011;46545;38.014;-7.874;2022-12-18T07:57:17;20.63;;;3.10;;
60704;SDS011;46545;38.014;-7.874;2022-12-18T07:59:18;10.48;;;2.58;;
60704;SDS011;46545;38.014;-7.874;2022-12-18T08:01:18;15.55;;;3.20;;
60704;SDS011;46545;38.014;-7.874;2022-12-18T08:03:19;11.70;;;3.38;;
60704;SDS011;46545;38.014;-7.874;2022-12-18T08:05:19;10.18;;;3.28;;
60704;SDS011;46545;38.014;-7.874;2022-12-18T08:07:21;5.10;;;2.55;;
60704;SDS011;46545;38.014;-7.874;2022-12-18T08:09:21;14.05;;;3.15;;
60704;SDS011;46545;38.014;-7.874;2022-12-18T08:11:22;12.10;;;3.60;;
60704;SDS011;46545;38.014;-7.874;2022-12-18T08:13:23;6.72;;;3.80;;
60704;SDS011;46545;38.014;-7.874;2022-12-18T08:15:23;17.90;;;3.45;;
60704;SDS011;46545;38.014;-7.874;2022-12-18T08:17:24;11.07;;;3.17;;
60704;SDS011;46545;38.014;-7.874;2022-12-18T08:19:24;8.27;;;3.13;;
60704;SDS011;46545;38.014;-7.874;2022-12-18T08:21:26;7.43;;;3.33;;
60704;SDS011;46545;38.014;-7.874;2022-12-18T08:23:26;15.75;;;3.72;;
60704;SDS011;46545;38.014;-7.874;2022-12-18T08:25:27;13.38;;;2.92;;
60704;SDS011;46545;38.014;-7.874;2022-12-18T08:27:27;14.05;;;3.65;;
60704;SDS011;46545;38.014;-7.874;2022-12-18T08:29:29;11.18;;;3.80;;
60704;SDS011;46545;38.014;-7.874;2022-12-18T08:31:30;23.60;;;3.53;;
60704;SDS011;46545;38.014;-7.874;2022-12-18T08:33:31;10.07;;;3.20;;
60704;SDS011;46545;38.014;-7.874;2022-12-18T08:35:34;8.63;;;2.80;;
60704;SDS011;46545;38.014;-7.874;2022-12-18T08:37:35;6.95;;;3.08;;
60704;SDS011;46545;38.014;-7.874;2022-12-18T08:39:35;11.95;;;3.33;;
60704;SDS011;46545;38.014;-7.874;2022-12-18T08:41:35;7.88;;;2.90;;
60704;SDS011;46545;38.014;-7.874;2022-12-18T08:43:36;8.10;;;2.80;;
60704;SDS011;46545;38.014;-7.874;2022-12-18T08:45:55;6.57;;;3.20;;
60704;SDS011;46545;38.014;-7.874;2022-12-18T08:47:55;9.45;;;3.60;;
60704;SDS011;46545;38.014;-7.874;2022-12-18T08:49:56;5.53;;;3.00;;
60704;SDS011;46545;38.014;-7.874;2022-12-18T08:51:56;7.60;;;4.10;;
60704;SDS011;46545;38.014;-7.874;2022-12-18T08:53:57;5.55;;;3.03;;
60704;SDS011;46545;38.014;-7.874;2022-12-18T08:55:58;7.53;;;2.67;;
60704;SDS011;46545;38.014;-7.874;2022-12-18T08:57:58;9.90;;;3.67;;
60704;SDS011;46545;38.014;-7.874;2022-12-18T08:59:59;6.75;;;3.10;;
60704;SDS011;46545;38.014;-7.874;2022-12-18T09:01:59;6.90;;;3.08;;
60704;SDS011;46545;38.014;-7.874;2022-12-18T09:04:00;5.95;;;3.28;;
60704;SDS011;46545;38.014;-7.874;2022-12-18T09:06:01;4.25;;;2.88;;
60704;SDS011;46545;38.014;-7.874;2022-12-18T09:08:01;6.07;;;3.15;;
60704;SDS011;46545;38.014;-7.874;2022-12-18T09:10:02;5.40;;;2.83;;
60704;SDS011;46545;38.014;-7.874;2022-12-18T09:12:02;4.65;;;2.25;;
60704;SDS011;46545;38.014;-7.874;2022-12-18T09:14:03;6.70;;;2.50;;
60704;SDS011;46545;38.014;-7.874;2022-12-18T09:16:03;5.95;;;2.10;;
60704;SDS011;46545;38.014;-7.874;2022-12-18T09:18:04;9.80;;;2.13;;
60704;SDS011;46545;38.014;-7.874;2022-12-18T09:20:04;5.22;;;2.33;;
60704;SDS011;46545;38.014;-7.874;2022-12-18T09:22:05;5.25;;;2.28;;
60704;SDS011;46545;38.014;-7.874;2022-12-18T09:24:06;8.65;;;2.90;;
60704;SDS011;46545;38.014;-7.874;2022-12-18T09:26:06;5.43;;;2.05;;
60704;SDS011;46545;38.014;-7.874;2022-12-18T09:28:12;5.43;;;1.95;;
60704;SDS011;46545;38.014;-7.874;2022-12-18T09:30:12;5.03;;;2.13;;
60704;SDS011;46545;38.014;-7.874;2022-12-18T09:32:14;3.75;;;2.22;;
60704;SDS011;46545;38.014;-7.874;2022-12-18T09:34:14;3.45;;;2.20;;
60704;SDS011;46545;38.014;-7.874;2022-12-18T09:36:16;13.00;;;2.97;;
60704;SDS011;46545;38.014;-7.874;2022-12-18T09:38:18;6.60;;;2.60;;
60704;SDS011;46545;38.014;-7.874;2022-12-18T09:40:21;8.88;;;2.92;;
60704;SDS011;46545;38.014;-7.874;2022-12-18T09:42:22;3.83;;;2.22;;
60704;SDS011;46545;38.014;-7.874;2022-12-18T09:44:23;5.65;;;3.03;;
60704;SDS011;46545;38.014;-7.874;2022-12-18T09:46:26;4.65;;;2.42;;
60704;SDS011;46545;38.014;-7.874;2022-12-18T09:48:29;5.07;;;2.72;;
60704;SDS011;46545;38.014;-7.874;2022-12-18T09:50:32;8.57;;;2.80;;
60704;SDS011;46545;38.014;-7.874;2022-12-18T09:52:34;5.55;;;2.22;;
60704;SDS011;46545;38.014;-7.874;2022-12-18T09:54:38;6.13;;;3.03;;
60704;SDS011;46545;38.014;-7.874;2022-12-18T09:56:40;9.25;;;2.85;;
60704;SDS011;46545;38.014;-7.874;2022-12-18T09:59:00;4.15;;;2.25;;
60704;SDS011;46545;38.014;-7.874;2022-12-18T10:01:00;6.75;;;2.78;;
60704;SDS011;46545;38.014;-7.874;2022-12-18T10:03:08;4.60;;;2.42;;
60704;SDS011;46545;38.014;-7.874;2022-12-18T10:05:13;6.28;;;2.35;;
60704;SDS011;46545;38.014;-7.874;2022-12-18T10:07:33;8.75;;;3.28;;
60704;SDS011;46545;38.014;-7.874;2022-12-18T10:09:39;11.60;;;3.03;;
60704;SDS011;46545;38.014;-7.874;2022-12-18T10:13:57;8.60;;;2.38;;
60704;SDS011;46545;38.014;-7.874;2022-12-18T10:22:21;5.55;;;1.98;;
60704;SDS011;46545;38.014;-7.874;2022-12-18T10:26:22;4.28;;;2.30;;
60704;SDS011;46545;38.014;-7.874;2022-12-18T10:28:24;8.18;;;2.05;;
60704;SDS011;46545;38.014;-7.874;2022-12-18T10:30:25;6.18;;;2.47;;
60704;SDS011;46545;38.014;-7.874;2022-12-18T10:32:27;7.13;;;2.13;;
60704;SDS011;46545;38.014;-7.874;2022-12-18T10:34:28;5.90;;;2.30;;
60704;SDS011;46545;38.014;-7.874;2022-12-18T10:36:28;8.85;;;2.53;;
60704;SDS011;46545;38.014;-7.874;2022-12-18T10:38:30;8.40;;;2.17;;
60704;SDS011;46545;38.014;-7.874;2022-12-18T10:40:32;6.45;;;2.22;;
60704;SDS011;46545;38.014;-7.874;2022-12-18T10:42:33;5.00;;;2.05;;
60704;SDS011;46545;38.014;-7.874;2022-12-18T10:44:33;4.55;;;1.83;;
60704;SDS011;46545;38.014;-7.874;2022-12-18T10:46:34;6.28;;;1.52;;
60704;SDS011;46545;38.014;-7.874;2022-12-18T10:48:47;7.18;;;2.10;;
60704;SDS011;46545;38.014;-7.874;2022-12-18T10:50:49;6.82;;;2.45;;
60704;SDS011;46545;38.014;-7.874;2022-12-18T10:52:55;8.48;;;1.98;;
60704;SDS011;46545;38.014;-7.874;2022-12-18T10:54:58;8.55;;;2.42;;
60704;SDS011;46545;38.014;-7.874;2022-12-18T10:57:15;7.65;;;2.05;;
60704;SDS011;46545;38.014;-7.874;2022-12-18T10:59:17;4.47;;;1.50;;
60704;SDS011;46545;38.014;-7.874;2022-12-18T11:01:17;7.78;;;2.00;;
60704;SDS011;46545;38.014;-7.874;2022-12-18T11:05:39;5.90;;;1.75;;
60704;SDS011;46545;38.014;-7.874;2022-12-18T11:07:49;7.28;;;2.78;;
60704;SDS011;46545;38.014;-7.874;2022-12-18T11:10:00;4.05;;;1.70;;
60704;SDS011;46545;38.014;-7.874;2022-12-18T11:12:01;6.32;;;1.52;;
60704;SDS011;46545;38.014;-7.874;2022-12-18T11:14:12;9.45;;;1.40;;
60704;SDS011;46545;38.014;-7.874;2022-12-18T11:16:19;5.40;;;1.88;;
60704;SDS011;46545;38.014;-7.874;2022-12-18T11:18:31;3.92;;;1.58;;
60704;SDS011;46545;38.014;-7.874;2022-12-18T11:20:34;3.10;;;1.42;;
60704;SDS011;46545;38.014;-7.874;2022-12-18T11:22:35;3.10;;;1.45;;
60704;SDS011;46545;38.014;-7.874;2022-12-18T11:24:36;7.85;;;2.17;;
60704;SDS011;46545;38.014;-7.874;2022-12-18T11:26:37;3.67;;;1.30;;
60704;SDS011;46545;38.014;-7.874;2022-12-18T11:30:40;8.30;;;1.60;;
60704;SDS011;46545;38.014;-7.874;2022-12-18T11:32:44;5.82;;;1.88;;
60704;SDS011;46545;38.014;-7.874;2022-12-18T11:34:48;6.60;;;1.70;;
60704;SDS011;46545;38.014;-7.874;2022-12-18T11:36:50;5.07;;;1.90;;
60704;SDS011;46545;38.014;-7.874;2022-12-18T11:38:51;3.42;;;1.55;;
60704;SDS011;46545;38.014;-7.874;2022-12-18T11:40:58;5.25;;;1.23;;
60704;SDS011;46545;38.014;-7.874;2022-12-18T11:43:10;3.83;;;1.50;;
60704;SDS011;46545;38.014;-7.874;2022-12-18T11:47:19;4.50;;;1.45;;
60704;SDS011;46545;38.014;-7.874;2022-12-18T11:49:34;6.97;;;1.77;;
60704;SDS011;46545;38.014;-7.874;2022-12-18T11:51:37;6.72;;;1.10;;
60704;SDS011;46545;38.014;-7.874;2022-12-18T11:53:39;4.68;;;1.60;;
60704;SDS011;46545;38.014;-7.874;2022-12-18T11:55:51;5.50;;;1.67;;
60704;SDS011;46545;38.014;-7.874;2022-12-18T11:58:16;6.28;;;2.05;;
60704;SDS011;46545;38.014;-7.874;2022-12-18T12:00:20;4.55;;;1.70;;
60704;SDS011;46545;38.014;-7.874;2022-12-18T12:02:27;4.40;;;1.50;;
60704;SDS011;46545;38.014;-7.874;2022-12-18T12:09:01;5.90;;;1.90;;
60704;SDS011;46545;38.014;-7.874;2022-12-18T12:13:14;3.78;;;1.08;;
60704;SDS011;46545;38.014;-7.874;2022-12-18T12:17:46;4.63;;;1.85;;
60704;SDS011;46545;38.014;-7.874;2022-12-18T12:26:17;5.03;;;1.60;;
60704;SDS011;46545;38.014;-7.874;2022-12-18T12:28:31;6.13;;;1.50;;
60704;SDS011;46545;38.014;-7.874;2022-12-18T12:31:36;3.58;;;0.98;;
60704;SDS011;46545;38.014;-7.874;2022-12-18T12:39:28;4.07;;;0.95;;
60704;SDS011;46545;38.014;-7.874;2022-12-18T12:41:31;2.78;;;1.13;;
60704;SDS011;46545;38.014;-7.874;2022-12-18T12:43:50;3.85;;;1.30;;
60704;SDS011;46545;38.014;-7.874;2022-12-18T12:45:58;6.15;;;1.30;;
60704;SDS011;46545;38.014;-7.874;2022-12-18T12:48:19;4.53;;;0.98;;
60704;SDS011;46545;38.014;-7.874;2022-12-18T12:50:21;5.47;;;1.50;;
60704;SDS011;46545;38.014;-7.874;2022-12-18T12:52:38;5.05;;;1.00;;
60704;SDS011;46545;38.014;-7.874;2022-12-18T12:54:40;5.60;;;1.35;;
60704;SDS011;46545;38.014;-7.874;2022-12-18T12:56:49;2.85;;;1.17;;
60704;SDS011;46545;38.014;-7.874;2022-12-18T13:01:08;6.25;;;1.10;;
60704;SDS011;46545;38.014;-7.874;2022-12-18T13:03:29;3.22;;;1.10;;
60704;SDS011;46545;38.014;-7.874;2022-12-18T13:07:39;5.43;;;1.35;;
60704;SDS011;46545;38.014;-7.874;2022-12-18T13:10:10;2.37;;;1.07;;
60704;SDS011;46545;38.014;-7.874;2022-12-18T13:12:10;2.33;;;0.90;;
60704;SDS011;46545;38.014;-7.874;2022-12-18T13:16:33;1.60;;;1.02;;